sensor_id;sensor_type;location;lat;lon;timestamp;temperature;humidity
68251;DHT22;55066;51.560;4.642;2022-11-23T00:01:36;7.65;99.99
68251;DHT22;55066;51.560;4.642;2022-11-23T00:04:04;7.77;99.99
68251;DHT22;55066;51.560;4.642;2022-11-23T00:06:30;7.65;99.99
68251;DHT22;55066;51.560;4.642;2022-11-23T00:08:56;7.56;99.99
68251;DHT22;55066;51.560;4.642;2022-11-23T00:11:22;7.56;99.99
68251;DHT22;55066;51.560;4.642;2022-11-23T00:13:48;7.48;99.99
68251;DHT22;55066;51.560;4.642;2022-11-23T00:16:16;7.49;99.99
68251;DHT22;55066;51.560;4.642;2022-11-23T00:18:42;7.47;99.99
68251;DHT22;55066;51.560;4.642;2022-11-23T00:21:09;7.47;99.99
68251;DHT22;55066;51.560;4.642;2022-11-23T00:23:35;7.51;99.99
68251;DHT22;55066;51.560;4.642;2022-11-23T00:26:02;7.41;99.99
68251;DHT22;55066;51.560;4.642;2022-11-23T00:28:27;7.39;99.99
68251;DHT22;55066;51.560;4.642;2022-11-23T00:30:53;7.32;99.99
68251;DHT22;55066;51.560;4.642;2022-11-23T00:33:18;7.32;99.99
68251;DHT22;55066;51.560;4.642;2022-11-23T00:35:43;7.24;99.99
68251;DHT22;55066;51.560;4.642;2022-11-23T00:38:09;7.34;99.99
68251;DHT22;55066;51.560;4.642;2022-11-23T00:40:35;7.31;99.99
68251;DHT22;55066;51.560;4.642;2022-11-23T00:43:01;7.35;99.99
68251;DHT22;55066;51.560;4.642;2022-11-23T00:45:27;7.45;99.99
68251;DHT22;55066;51.560;4.642;2022-11-23T00:47:53;7.44;99.99
68251;DHT22;55066;51.560;4.642;2022-11-23T00:50:20;7.35;99.99
68251;DHT22;55066;51.560;4.642;2022-11-23T00:52:48;7.38;99.99
68251;DHT22;55066;51.560;4.642;2022-11-23T00:55:13;7.29;99.99
68251;DHT22;55066;51.560;4.642;2022-11-23T00:57:38;7.35;99.99
68251;DHT22;55066;51.560;4.642;2022-11-23T01:00:05;7.42;99.99
68251;DHT22;55066;51.560;4.642;2022-11-23T01:02:34;7.31;99.99
68251;DHT22;55066;51.560;4.642;2022-11-23T01:05:01;7.29;99.99
68251;DHT22;55066;51.560;4.642;2022-11-23T01:07:28;7.35;99.99
68251;DHT22;55066;51.560;4.642;2022-11-23T01:09:56;7.47;99.99
68251;DHT22;55066;51.560;4.642;2022-11-23T01:12:21;7.51;99.99
68251;DHT22;55066;51.560;4.642;2022-11-23T01:14:47;7.61;99.99
68251;DHT22;55066;51.560;4.642;2022-11-23T01:17:12;7.75;99.99
68251;DHT22;55066;51.560;4.642;2022-11-23T01:19:37;7.79;99.99
68251;DHT22;55066;51.560;4.642;2022-11-23T01:22:04;7.85;99.99
68251;DHT22;55066;51.560;4.642;2022-11-23T01:24:29;7.83;99.99
68251;DHT22;55066;51.560;4.642;2022-11-23T01:26:54;7.83;99.99
68251;DHT22;55066;51.560;4.642;2022-11-23T01:29:21;7.83;99.99
68251;DHT22;55066;51.560;4.642;2022-11-23T01:31:46;7.77;99.99
68251;DHT22;55066;51.560;4.642;2022-11-23T01:34:15;7.86;99.99
68251;DHT22;55066;51.560;4.642;2022-11-23T01:36:41;7.96;99.99
68251;DHT22;55066;51.560;4.642;2022-11-23T01:39:08;8.05;99.99
68251;DHT22;55066;51.560;4.642;2022-11-23T01:41:37;8.03;99.99
68251;DHT22;55066;51.560;4.642;2022-11-23T01:44:22;8.03;99.99
68251;DHT22;55066;51.560;4.642;2022-11-23T01:46:52;8.04;99.99
68251;DHT22;55066;51.560;4.642;2022-11-23T01:49:17;8.04;99.99
68251;DHT22;55066;51.560;4.642;2022-11-23T01:51:45;8.04;99.99
68251;DHT22;55066;51.560;4.642;2022-11-23T01:54:17;8.08;99.99
68251;DHT22;55066;51.560;4.642;2022-11-23T01:56:48;8.10;99.99
68251;DHT22;55066;51.560;4.642;2022-11-23T01:59:16;8.17;99.99
68251;DHT22;55066;51.560;4.642;2022-11-23T02:01:43;8.15;99.99
68251;DHT22;55066;51.560;4.642;2022-11-23T02:04:13;8.14;99.99
68251;DHT22;55066;51.560;4.642;2022-11-23T02:06:44;8.13;99.99
68251;DHT22;55066;51.560;4.642;2022-11-23T02:09:11;8.15;99.99
68251;DHT22;55066;51.560;4.642;2022-11-23T02:11:36;8.18;99.99
68251;DHT22;55066;51.560;4.642;2022-11-23T02:14:02;8.17;99.99
68251;DHT22;55066;51.560;4.642;2022-11-23T02:16:28;8.23;99.99
68251;DHT22;55066;51.560;4.642;2022-11-23T02:18:54;8.34;99.99
68251;DHT22;55066;51.560;4.642;2022-11-23T02:21:20;8.38;99.99
68251;DHT22;55066;51.560;4.642;2022-11-23T02:24:06;8.37;99.99
68251;DHT22;55066;51.560;4.642;2022-11-23T02:26:35;8.35;99.99
68251;DHT22;55066;51.560;4.642;2022-11-23T02:29:26;8.35;99.99
68251;DHT22;55066;51.560;4.642;2022-11-23T02:31:52;8.41;99.99
68251;DHT22;55066;51.560;4.642;2022-11-23T02:34:22;8.40;99.99
68251;DHT22;55066;51.560;4.642;2022-11-23T02:36:54;8.44;99.99
68251;DHT22;55066;51.560;4.642;2022-11-23T02:39:30;8.42;99.99
68251;DHT22;55066;51.560;4.642;2022-11-23T02:41:57;8.40;99.99
68251;DHT22;55066;51.560;4.642;2022-11-23T02:47:13;8.44;99.99
68251;DHT22;55066;51.560;4.642;2022-11-23T02:49:40;8.44;99.99
68251;DHT22;55066;51.560;4.642;2022-11-23T02:52:07;8.44;99.99
68251;DHT22;55066;51.560;4.642;2022-11-23T02:54:32;8.46;99.99
68251;DHT22;55066;51.560;4.642;2022-11-23T02:56:58;8.48;99.99
68251;DHT22;55066;51.560;4.642;2022-11-23T02:59:23;8.49;99.99
68251;DHT22;55066;51.560;4.642;2022-11-23T03:01:51;8.44;99.99
68251;DHT22;55066;51.560;4.642;2022-11-23T03:04:16;8.38;99.99
68251;DHT22;55066;51.560;4.642;2022-11-23T03:06:43;8.44;99.99
68251;DHT22;55066;51.560;4.642;2022-11-23T03:09:08;8.44;99.99
68251;DHT22;55066;51.560;4.642;2022-11-23T03:11:34;8.44;99.99
68251;DHT22;55066;51.560;4.642;2022-11-23T03:14:02;8.48;99.99
68251;DHT22;55066;51.560;4.642;2022-11-23T03:16:29;8.49;99.99
68251;DHT22;55066;51.560;4.642;2022-11-23T03:18:55;8.53;99.99
68251;DHT22;55066;51.560;4.642;2022-11-23T03:21:21;8.46;99.99
68251;DHT22;55066;51.560;4.642;2022-11-23T03:23:46;8.48;99.99
68251;DHT22;55066;51.560;4.642;2022-11-23T03:26:12;8.44;99.99
68251;DHT22;55066;51.560;4.642;2022-11-23T03:28:43;8.44;99.99
68251;DHT22;55066;51.560;4.642;2022-11-23T03:31:09;8.44;99.99
68251;DHT22;55066;51.560;4.642;2022-11-23T03:33:36;8.41;99.99
68251;DHT22;55066;51.560;4.642;2022-11-23T03:36:02;8.42;99.99
68251;DHT22;55066;51.560;4.642;2022-11-23T03:38:31;8.38;99.99
68251;DHT22;55066;51.560;4.642;2022-11-23T03:40:57;8.42;99.99
68251;DHT22;55066;51.560;4.642;2022-11-23T03:43:25;8.42;99.99
68251;DHT22;55066;51.560;4.642;2022-11-23T03:45:50;8.42;99.99
68251;DHT22;55066;51.560;4.642;2022-11-23T03:48:16;8.44;99.99
68251;DHT22;55066;51.560;4.642;2022-11-23T03:50:41;8.46;99.99
68251;DHT22;55066;51.560;4.642;2022-11-23T03:53:08;8.48;99.99
68251;DHT22;55066;51.560;4.642;2022-11-23T03:55:33;8.49;99.99
68251;DHT22;55066;51.560;4.642;2022-11-23T03:58:00;8.52;99.99
68251;DHT22;55066;51.560;4.642;2022-11-23T04:00:29;8.49;99.99
68251;DHT22;55066;51.560;4.642;2022-11-23T04:02:55;8.42;99.99
68251;DHT22;55066;51.560;4.642;2022-11-23T04:05:44;8.37;99.99
68251;DHT22;55066;51.560;4.642;2022-11-23T04:08:29;8.30;99.99
68251;DHT22;55066;51.560;4.642;2022-11-23T04:10:58;8.34;99.99
68251;DHT22;55066;51.560;4.642;2022-11-23T04:13:34;8.25;99.99
68251;DHT22;55066;51.560;4.642;2022-11-23T04:15:59;8.32;99.99
68251;DHT22;55066;51.560;4.642;2022-11-23T04:18:25;8.37;99.99
68251;DHT22;55066;51.560;4.642;2022-11-23T04:20:51;8.42;99.99
68251;DHT22;55066;51.560;4.642;2022-11-23T04:23:17;8.40;99.99
68251;DHT22;55066;51.560;4.642;2022-11-23T04:25:42;8.38;99.99
68251;DHT22;55066;51.560;4.642;2022-11-23T04:28:08;8.28;99.99
68251;DHT22;55066;51.560;4.642;2022-11-23T04:30:34;8.28;99.99
68251;DHT22;55066;51.560;4.642;2022-11-23T04:32:59;8.27;99.99
68251;DHT22;55066;51.560;4.642;2022-11-23T04:35:25;8.21;99.99
68251;DHT22;55066;51.560;4.642;2022-11-23T04:37:51;8.17;99.99
68251;DHT22;55066;51.560;4.642;2022-11-23T04:40:18;8.05;99.99
68251;DHT22;55066;51.560;4.642;2022-11-23T04:43:03;8.04;99.99
68251;DHT22;55066;51.560;4.642;2022-11-23T04:45:36;8.04;99.99
68251;DHT22;55066;51.560;4.642;2022-11-23T04:48:05;8.03;99.99
68251;DHT22;55066;51.560;4.642;2022-11-23T04:50:32;7.94;99.99
68251;DHT22;55066;51.560;4.642;2022-11-23T04:52:59;7.90;99.99
68251;DHT22;55066;51.560;4.642;2022-11-23T04:55:33;7.83;99.99
68251;DHT22;55066;51.560;4.642;2022-11-23T04:58:00;7.86;99.99
68251;DHT22;55066;51.560;4.642;2022-11-23T05:00:29;7.86;99.99
68251;DHT22;55066;51.560;4.642;2022-11-23T05:02:59;7.75;99.99
68251;DHT22;55066;51.560;4.642;2022-11-23T05:05:28;7.59;99.99
68251;DHT22;55066;51.560;4.642;2022-11-23T05:07:54;7.41;99.99
68251;DHT22;55066;51.560;4.642;2022-11-23T05:10:22;7.31;99.99
68251;DHT22;55066;51.560;4.642;2022-11-23T05:12:48;7.22;99.99
68251;DHT22;55066;51.560;4.642;2022-11-23T05:15:14;7.21;99.99
68251;DHT22;55066;51.560;4.642;2022-11-23T05:17:39;7.18;99.99
68251;DHT22;55066;51.560;4.642;2022-11-23T05:20:11;6.99;99.99
68251;DHT22;55066;51.560;4.642;2022-11-23T05:22:41;6.99;99.99
68251;DHT22;55066;51.560;4.642;2022-11-23T05:25:10;6.83;99.99
68251;DHT22;55066;51.560;4.642;2022-11-23T05:27:37;6.77;99.99
68251;DHT22;55066;51.560;4.642;2022-11-23T05:30:02;6.87;99.99
68251;DHT22;55066;51.560;4.642;2022-11-23T05:32:29;7.00;99.99
68251;DHT22;55066;51.560;4.642;2022-11-23T05:34:56;6.97;99.99
68251;DHT22;55066;51.560;4.642;2022-11-23T05:37:24;7.07;99.99
68251;DHT22;55066;51.560;4.642;2022-11-23T05:39:56;7.14;99.99
68251;DHT22;55066;51.560;4.642;2022-11-23T05:42:22;7.17;99.99
68251;DHT22;55066;51.560;4.642;2022-11-23T05:44:49;7.24;99.99
68251;DHT22;55066;51.560;4.642;2022-11-23T05:47:20;7.35;99.99
68251;DHT22;55066;51.560;4.642;2022-11-23T05:49:46;7.36;99.99
68251;DHT22;55066;51.560;4.642;2022-11-23T05:52:13;7.34;99.99
68251;DHT22;55066;51.560;4.642;2022-11-23T05:54:39;7.48;99.99
68251;DHT22;55066;51.560;4.642;2022-11-23T05:57:10;7.49;99.99
68251;DHT22;55066;51.560;4.642;2022-11-23T05:59:38;7.48;99.99
68251;DHT22;55066;51.560;4.642;2022-11-23T06:02:05;7.51;99.99
68251;DHT22;55066;51.560;4.642;2022-11-23T06:04:34;7.48;99.99
68251;DHT22;55066;51.560;4.642;2022-11-23T06:06:59;7.48;99.99
68251;DHT22;55066;51.560;4.642;2022-11-23T06:09:27;7.48;99.99
68251;DHT22;55066;51.560;4.642;2022-11-23T06:11:55;7.44;99.99
68251;DHT22;55066;51.560;4.642;2022-11-23T06:14:21;7.51;99.99
68251;DHT22;55066;51.560;4.642;2022-11-23T06:16:47;7.45;99.99
68251;DHT22;55066;51.560;4.642;2022-11-23T06:19:24;7.38;99.99
68251;DHT22;55066;51.560;4.642;2022-11-23T06:21:51;7.39;99.99
68251;DHT22;55066;51.560;4.642;2022-11-23T06:24:19;7.52;99.99
68251;DHT22;55066;51.560;4.642;2022-11-23T06:26:50;7.49;99.99
68251;DHT22;55066;51.560;4.642;2022-11-23T06:29:17;7.51;99.99
68251;DHT22;55066;51.560;4.642;2022-11-23T06:31:42;7.51;99.99
68251;DHT22;55066;51.560;4.642;2022-11-23T06:34:08;7.44;99.99
68251;DHT22;55066;51.560;4.642;2022-11-23T06:36:33;7.44;99.99
68251;DHT22;55066;51.560;4.642;2022-11-23T06:38:59;7.45;99.99
68251;DHT22;55066;51.560;4.642;2022-11-23T06:41:24;7.39;99.99
68251;DHT22;55066;51.560;4.642;2022-11-23T06:43:50;7.42;99.99
68251;DHT22;55066;51.560;4.642;2022-11-23T06:46:31;7.41;99.99
68251;DHT22;55066;51.560;4.642;2022-11-23T06:48:57;7.36;99.99
68251;DHT22;55066;51.560;4.642;2022-11-23T06:51:23;7.39;99.99
68251;DHT22;55066;51.560;4.642;2022-11-23T06:53:50;7.41;99.99
68251;DHT22;55066;51.560;4.642;2022-11-23T06:56:16;7.42;99.99
68251;DHT22;55066;51.560;4.642;2022-11-23T06:58:44;7.49;99.99
68251;DHT22;55066;51.560;4.642;2022-11-23T07:01:16;7.42;99.99
68251;DHT22;55066;51.560;4.642;2022-11-23T07:03:53;7.44;99.99
68251;DHT22;55066;51.560;4.642;2022-11-23T07:06:24;7.42;99.99
68251;DHT22;55066;51.560;4.642;2022-11-23T07:08:54;7.48;99.99
68251;DHT22;55066;51.560;4.642;2022-11-23T07:11:33;7.47;99.99
68251;DHT22;55066;51.560;4.642;2022-11-23T07:13:59;7.55;99.99
68251;DHT22;55066;51.560;4.642;2022-11-23T07:16:26;7.48;99.99
68251;DHT22;55066;51.560;4.642;2022-11-23T07:18:52;7.55;99.99
68251;DHT22;55066;51.560;4.642;2022-11-23T07:21:17;7.54;99.99
68251;DHT22;55066;51.560;4.642;2022-11-23T07:23:44;7.52;99.99
68251;DHT22;55066;51.560;4.642;2022-11-23T07:26:10;7.51;99.99
68251;DHT22;55066;51.560;4.642;2022-11-23T07:28:35;7.54;99.99
68251;DHT22;55066;51.560;4.642;2022-11-23T07:31:00;7.58;99.99
68251;DHT22;55066;51.560;4.642;2022-11-23T07:33:27;7.55;99.99
68251;DHT22;55066;51.560;4.642;2022-11-23T07:35:52;7.58;99.99
68251;DHT22;55066;51.560;4.642;2022-11-23T07:38:19;7.61;99.99
68251;DHT22;55066;51.560;4.642;2022-11-23T07:40:47;7.58;99.99
68251;DHT22;55066;51.560;4.642;2022-11-23T07:43:23;7.45;99.99
68251;DHT22;55066;51.560;4.642;2022-11-23T07:45:48;7.45;99.99
68251;DHT22;55066;51.560;4.642;2022-11-23T07:48:16;7.49;99.99
68251;DHT22;55066;51.560;4.642;2022-11-23T07:50:42;7.47;99.99
68251;DHT22;55066;51.560;4.642;2022-11-23T07:53:08;7.36;99.99
68251;DHT22;55066;51.560;4.642;2022-11-23T07:55:35;7.27;99.99
68251;DHT22;55066;51.560;4.642;2022-11-23T07:58:18;7.27;99.99
68251;DHT22;55066;51.560;4.642;2022-11-23T08:01:14;7.24;99.99
68251;DHT22;55066;51.560;4.642;2022-11-23T08:03:46;7.28;99.99
68251;DHT22;55066;51.560;4.642;2022-11-23T08:06:13;7.31;99.99
68251;DHT22;55066;51.560;4.642;2022-11-23T08:08:39;7.32;99.99
68251;DHT22;55066;51.560;4.642;2022-11-23T08:11:06;7.27;99.99
68251;DHT22;55066;51.560;4.642;2022-11-23T08:13:34;7.17;99.99
68251;DHT22;55066;51.560;4.642;2022-11-23T08:16:03;7.04;99.99
68251;DHT22;55066;51.560;4.642;2022-11-23T08:21:15;7.03;99.99
68251;DHT22;55066;51.560;4.642;2022-11-23T08:23:46;7.00;99.99
68251;DHT22;55066;51.560;4.642;2022-11-23T08:26:14;6.97;99.99
68251;DHT22;55066;51.560;4.642;2022-11-23T08:28:42;6.94;99.99
68251;DHT22;55066;51.560;4.642;2022-11-23T08:31:12;6.96;99.99
68251;DHT22;55066;51.560;4.642;2022-11-23T08:33:40;7.00;99.99
68251;DHT22;55066;51.560;4.642;2022-11-23T08:36:07;7.04;99.99
68251;DHT22;55066;51.560;4.642;2022-11-23T08:38:33;7.03;99.99
68251;DHT22;55066;51.560;4.642;2022-11-23T08:40:59;7.00;99.99
68251;DHT22;55066;51.560;4.642;2022-11-23T08:43:25;6.96;99.99
68251;DHT22;55066;51.560;4.642;2022-11-23T08:45:54;7.04;99.99
68251;DHT22;55066;51.560;4.642;2022-11-23T08:48:20;7.01;99.99
68251;DHT22;55066;51.560;4.642;2022-11-23T08:50:46;7.03;99.99
68251;DHT22;55066;51.560;4.642;2022-11-23T08:53:12;7.01;99.99
68251;DHT22;55066;51.560;4.642;2022-11-23T08:55:37;7.08;99.99
68251;DHT22;55066;51.560;4.642;2022-11-23T08:58:02;7.12;99.99
68251;DHT22;55066;51.560;4.642;2022-11-23T09:00:28;7.14;99.99
68251;DHT22;55066;51.560;4.642;2022-11-23T09:02:54;7.07;99.99
68251;DHT22;55066;51.560;4.642;2022-11-23T09:05:23;7.14;99.99
68251;DHT22;55066;51.560;4.642;2022-11-23T09:07:48;7.18;99.99
68251;DHT22;55066;51.560;4.642;2022-11-23T09:10:14;7.20;99.99
68251;DHT22;55066;51.560;4.642;2022-11-23T09:12:39;7.22;99.99
68251;DHT22;55066;51.560;4.642;2022-11-23T09:15:05;7.27;99.99
68251;DHT22;55066;51.560;4.642;2022-11-23T09:17:31;7.29;99.99
68251;DHT22;55066;51.560;4.642;2022-11-23T09:19:57;7.39;99.99
68251;DHT22;55066;51.560;4.642;2022-11-23T09:22:22;7.44;99.99
68251;DHT22;55066;51.560;4.642;2022-11-23T09:24:48;7.52;99.99
68251;DHT22;55066;51.560;4.642;2022-11-23T09:27:13;7.67;99.92
68251;DHT22;55066;51.560;4.642;2022-11-23T09:29:38;7.66;99.45
68251;DHT22;55066;51.560;4.642;2022-11-23T09:32:04;7.69;99.55
68251;DHT22;55066;51.560;4.642;2022-11-23T09:34:29;7.70;99.61
68251;DHT22;55066;51.560;4.642;2022-11-23T09:36:56;7.72;99.39
68251;DHT22;55066;51.560;4.642;2022-11-23T09:39:21;7.73;99.52
68251;DHT22;55066;51.560;4.642;2022-11-23T09:47:56;7.80;99.64
68251;DHT22;55066;51.560;4.642;2022-11-23T09:50:35;7.90;99.07
68251;DHT22;55066;51.560;4.642;2022-11-23T09:53:08;7.72;98.89
68251;DHT22;55066;51.560;4.642;2022-11-23T09:55:41;7.80;98.73
68251;DHT22;55066;51.560;4.642;2022-11-23T09:58:19;7.76;98.89
68251;DHT22;55066;51.560;4.642;2022-11-23T10:01:04;7.87;98.75
68251;DHT22;55066;51.560;4.642;2022-11-23T10:03:37;7.82;98.59
68251;DHT22;55066;51.560;4.642;2022-11-23T10:06:28;7.83;98.57
68251;DHT22;55066;51.560;4.642;2022-11-23T10:11:55;8.00;98.67
68251;DHT22;55066;51.560;4.642;2022-11-23T10:14:38;7.96;98.27
68251;DHT22;55066;51.560;4.642;2022-11-23T10:17:21;8.10;98.67
68251;DHT22;55066;51.560;4.642;2022-11-23T10:20:12;8.07;98.56
68251;DHT22;55066;51.560;4.642;2022-11-23T10:25:18;8.20;98.57
68251;DHT22;55066;51.560;4.642;2022-11-23T10:27:46;8.15;98.31
68251;DHT22;55066;51.560;4.642;2022-11-23T10:30:15;8.18;98.25
68251;DHT22;55066;51.560;4.642;2022-11-23T10:32:45;8.20;98.12
68251;DHT22;55066;51.560;4.642;2022-11-23T10:37:47;8.37;97.72
68251;DHT22;55066;51.560;4.642;2022-11-23T10:40:27;8.49;97.46
68251;DHT22;55066;51.560;4.642;2022-11-23T10:43:00;8.46;97.51
68251;DHT22;55066;51.560;4.642;2022-11-23T10:45:34;8.35;97.43
68251;DHT22;55066;51.560;4.642;2022-11-23T10:47:59;8.40;97.42
68251;DHT22;55066;51.560;4.642;2022-11-23T10:50:27;8.48;97.61
68251;DHT22;55066;51.560;4.642;2022-11-23T10:53:18;8.41;97.36
68251;DHT22;55066;51.560;4.642;2022-11-23T10:58:30;8.58;97.50
68251;DHT22;55066;51.560;4.642;2022-11-23T11:01:03;8.62;96.80
68251;DHT22;55066;51.560;4.642;2022-11-23T11:03:33;8.66;96.89
68251;DHT22;55066;51.560;4.642;2022-11-23T11:05:59;8.66;96.89
68251;DHT22;55066;51.560;4.642;2022-11-23T11:08:28;8.79;96.62
68251;DHT22;55066;51.560;4.642;2022-11-23T11:11:05;8.86;96.17
68251;DHT22;55066;51.560;4.642;2022-11-23T11:13:44;8.91;96.51
68251;DHT22;55066;51.560;4.642;2022-11-23T11:16:25;8.94;95.91
68251;DHT22;55066;51.560;4.642;2022-11-23T11:19:34;9.03;95.43
68251;DHT22;55066;51.560;4.642;2022-11-23T11:22:28;9.01;95.59
68251;DHT22;55066;51.560;4.642;2022-11-23T11:24:56;9.20;95.59
68251;DHT22;55066;51.560;4.642;2022-11-23T11:27:23;9.20;95.16
68251;DHT22;55066;51.560;4.642;2022-11-23T11:29:57;9.34;94.83
68251;DHT22;55066;51.560;4.642;2022-11-23T11:32:44;9.32;94.55
68251;DHT22;55066;51.560;4.642;2022-11-23T11:37:46;9.45;94.36
68251;DHT22;55066;51.560;4.642;2022-11-23T11:40:28;9.51;94.37
68251;DHT22;55066;51.560;4.642;2022-11-23T11:43:04;9.56;94.83
68251;DHT22;55066;51.560;4.642;2022-11-23T11:45:39;9.30;95.03
68251;DHT22;55066;51.560;4.642;2022-11-23T11:48:15;9.27;95.38
68251;DHT22;55066;51.560;4.642;2022-11-23T11:50:49;9.38;94.95
68251;DHT22;55066;51.560;4.642;2022-11-23T11:53:28;9.56;94.54
68251;DHT22;55066;51.560;4.642;2022-11-23T11:58:51;9.54;94.61
68251;DHT22;55066;51.560;4.642;2022-11-23T12:01:40;9.61;94.80
68251;DHT22;55066;51.560;4.642;2022-11-23T12:04:33;9.68;93.45
68251;DHT22;55066;51.560;4.642;2022-11-23T12:13:12;9.82;93.41
68251;DHT22;55066;51.560;4.642;2022-11-23T12:16:33;9.90;93.01
68251;DHT22;55066;51.560;4.642;2022-11-23T12:26:56;9.73;94.05
68251;DHT22;55066;51.560;4.642;2022-11-23T12:29:55;9.66;94.00
68251;DHT22;55066;51.560;4.642;2022-11-23T12:47:29;9.69;94.57
68251;DHT22;55066;51.560;4.642;2022-11-23T12:56:11;8.94;99.99
68251;DHT22;55066;51.560;4.642;2022-11-23T12:59:13;8.70;99.99
68251;DHT22;55066;51.560;4.642;2022-11-23T13:01:50;8.65;99.99
68251;DHT22;55066;51.560;4.642;2022-11-23T13:04:25;8.58;99.99
68251;DHT22;55066;51.560;4.642;2022-11-23T13:07:16;8.56;99.99
68251;DHT22;55066;51.560;4.642;2022-11-23T13:12:50;8.52;99.99
68251;DHT22;55066;51.560;4.642;2022-11-23T13:21:21;8.61;99.99
68251;DHT22;55066;51.560;4.642;2022-11-23T13:23:50;8.61;99.99
68251;DHT22;55066;51.560;4.642;2022-11-23T13:26:20;8.58;99.99
68251;DHT22;55066;51.560;4.642;2022-11-23T13:28:53;8.56;99.99
68251;DHT22;55066;51.560;4.642;2022-11-23T13:33:49;8.40;99.99
68251;DHT22;55066;51.560;4.642;2022-11-23T13:38:53;8.30;99.99
68251;DHT22;55066;51.560;4.642;2022-11-23T13:43:56;8.23;99.99
68251;DHT22;55066;51.560;4.642;2022-11-23T13:48:52;8.18;99.99
68251;DHT22;55066;51.560;4.642;2022-11-23T13:51:30;8.20;99.99
68251;DHT22;55066;51.560;4.642;2022-11-23T13:54:05;8.17;99.99
68251;DHT22;55066;51.560;4.642;2022-11-23T13:56:43;8.15;99.99
68251;DHT22;55066;51.560;4.642;2022-11-23T14:04:33;8.18;99.99
68251;DHT22;55066;51.560;4.642;2022-11-23T14:07:03;8.21;99.99
68251;DHT22;55066;51.560;4.642;2022-11-23T14:12:35;8.14;99.99
68251;DHT22;55066;51.560;4.642;2022-11-23T14:15:20;8.21;99.99
68251;DHT22;55066;51.560;4.642;2022-11-23T14:21:06;8.21;99.99
68251;DHT22;55066;51.560;4.642;2022-11-23T14:26:24;8.17;99.99
68251;DHT22;55066;51.560;4.642;2022-11-23T14:37:58;8.14;99.99
68251;DHT22;55066;51.560;4.642;2022-11-23T14:40:36;8.15;99.99
68251;DHT22;55066;51.560;4.642;2022-11-23T14:43:12;8.10;99.99
68251;DHT22;55066;51.560;4.642;2022-11-23T14:45:41;8.08;99.99
68251;DHT22;55066;51.560;4.642;2022-11-23T14:48:30;8.14;99.99
68251;DHT22;55066;51.560;4.642;2022-11-23T14:51:02;8.15;99.99
68251;DHT22;55066;51.560;4.642;2022-11-23T14:53:38;8.15;99.99
68251;DHT22;55066;51.560;4.642;2022-11-23T14:56:05;8.13;99.99
68251;DHT22;55066;51.560;4.642;2022-11-23T14:58:41;8.15;99.99
68251;DHT22;55066;51.560;4.642;2022-11-23T15:01:10;8.10;99.99
68251;DHT22;55066;51.560;4.642;2022-11-23T15:03:40;8.10;99.99
68251;DHT22;55066;51.560;4.642;2022-11-23T15:06:13;8.11;99.99
68251;DHT22;55066;51.560;4.642;2022-11-23T15:11:37;8.11;99.99
68251;DHT22;55066;51.560;4.642;2022-11-23T15:14:16;8.17;99.99
68251;DHT22;55066;51.560;4.642;2022-11-23T15:16:41;8.17;99.99
68251;DHT22;55066;51.560;4.642;2022-11-23T15:19:27;8.27;99.99
68251;DHT22;55066;51.560;4.642;2022-11-23T15:21:56;8.28;99.99
68251;DHT22;55066;51.560;4.642;2022-11-23T15:24:23;8.24;99.99
68251;DHT22;55066;51.560;4.642;2022-11-23T15:26:49;8.24;99.99
68251;DHT22;55066;51.560;4.642;2022-11-23T15:29:33;8.15;99.99
68251;DHT22;55066;51.560;4.642;2022-11-23T15:31:59;8.18;99.99
68251;DHT22;55066;51.560;4.642;2022-11-23T15:34:25;8.13;99.99
68251;DHT22;55066;51.560;4.642;2022-11-23T15:36:51;8.20;99.99
68251;DHT22;55066;51.560;4.642;2022-11-23T15:39:18;8.20;99.99
68251;DHT22;55066;51.560;4.642;2022-11-23T15:41:44;8.15;99.99
68251;DHT22;55066;51.560;4.642;2022-11-23T15:44:25;8.14;99.99
68251;DHT22;55066;51.560;4.642;2022-11-23T15:46:55;8.05;99.99
68251;DHT22;55066;51.560;4.642;2022-11-23T15:49:22;8.00;99.99
68251;DHT22;55066;51.560;4.642;2022-11-23T15:51:48;8.00;99.99
68251;DHT22;55066;51.560;4.642;2022-11-23T15:54:19;8.03;99.99
68251;DHT22;55066;51.560;4.642;2022-11-23T15:56:46;8.00;99.99
68251;DHT22;55066;51.560;4.642;2022-11-23T15:59:39;7.97;99.99
68251;DHT22;55066;51.560;4.642;2022-11-23T16:02:21;8.00;99.99
68251;DHT22;55066;51.560;4.642;2022-11-23T16:04:47;7.98;99.99
68251;DHT22;55066;51.560;4.642;2022-11-23T16:07:16;7.93;99.99
68251;DHT22;55066;51.560;4.642;2022-11-23T16:09:43;7.89;99.99
68251;DHT22;55066;51.560;4.642;2022-11-23T16:12:27;7.87;99.99
68251;DHT22;55066;51.560;4.642;2022-11-23T16:14:57;7.87;99.99
68251;DHT22;55066;51.560;4.642;2022-11-23T16:17:25;7.87;99.99
68251;DHT22;55066;51.560;4.642;2022-11-23T16:19:53;7.85;99.99
68251;DHT22;55066;51.560;4.642;2022-11-23T16:22:30;7.83;99.99
68251;DHT22;55066;51.560;4.642;2022-11-23T16:25:06;7.79;99.99
68251;DHT22;55066;51.560;4.642;2022-11-23T16:27:33;7.72;99.99
68251;DHT22;55066;51.560;4.642;2022-11-23T16:30:00;7.69;99.99
68251;DHT22;55066;51.560;4.642;2022-11-23T16:32:30;7.66;99.99
68251;DHT22;55066;51.560;4.642;2022-11-23T16:35:16;7.66;99.99
68251;DHT22;55066;51.560;4.642;2022-11-23T16:37:42;7.61;99.99
68251;DHT22;55066;51.560;4.642;2022-11-23T16:40:08;7.62;99.99
68251;DHT22;55066;51.560;4.642;2022-11-23T16:42:33;7.54;99.99
68251;DHT22;55066;51.560;4.642;2022-11-23T16:44:59;7.54;99.99
68251;DHT22;55066;51.560;4.642;2022-11-23T16:47:25;7.51;99.99
68251;DHT22;55066;51.560;4.642;2022-11-23T16:49:52;7.44;99.99
68251;DHT22;55066;51.560;4.642;2022-11-23T16:52:18;7.42;99.99
68251;DHT22;55066;51.560;4.642;2022-11-23T16:54:43;7.36;99.99
68251;DHT22;55066;51.560;4.642;2022-11-23T16:57:31;7.42;99.99
68251;DHT22;55066;51.560;4.642;2022-11-23T16:59:58;7.42;99.99
68251;DHT22;55066;51.560;4.642;2022-11-23T17:02:25;7.38;99.99
68251;DHT22;55066;51.560;4.642;2022-11-23T17:04:50;7.39;99.99
68251;DHT22;55066;51.560;4.642;2022-11-23T17:07:16;7.31;99.99
68251;DHT22;55066;51.560;4.642;2022-11-23T17:09:41;7.28;99.99
68251;DHT22;55066;51.560;4.642;2022-11-23T17:12:13;7.21;99.99
68251;DHT22;55066;51.560;4.642;2022-11-23T17:14:40;7.28;99.99
68251;DHT22;55066;51.560;4.642;2022-11-23T17:17:09;7.28;99.99
68251;DHT22;55066;51.560;4.642;2022-11-23T17:19:35;7.21;99.99
68251;DHT22;55066;51.560;4.642;2022-11-23T17:22:00;7.12;99.99
68251;DHT22;55066;51.560;4.642;2022-11-23T17:24:26;7.15;99.99
68251;DHT22;55066;51.560;4.642;2022-11-23T17:26:51;7.03;99.99
68251;DHT22;55066;51.560;4.642;2022-11-23T17:29:18;7.00;99.99
68251;DHT22;55066;51.560;4.642;2022-11-23T17:31:48;7.03;99.99
68251;DHT22;55066;51.560;4.642;2022-11-23T17:34:15;7.04;99.99
68251;DHT22;55066;51.560;4.642;2022-11-23T17:36:41;6.99;99.99
68251;DHT22;55066;51.560;4.642;2022-11-23T17:39:09;6.89;99.99
68251;DHT22;55066;51.560;4.642;2022-11-23T17:41:39;6.86;99.99
68251;DHT22;55066;51.560;4.642;2022-11-23T17:44:07;6.80;99.99
68251;DHT22;55066;51.560;4.642;2022-11-23T17:46:41;6.80;99.99
68251;DHT22;55066;51.560;4.642;2022-11-23T17:49:14;6.86;99.99
68251;DHT22;55066;51.560;4.642;2022-11-23T17:51:41;6.68;99.99